Latest Weather Observations for Darwin Airport

IDD60901

Issued at 9:31 pm CST Sunday 17 December 2017 (issued every 10 minutes, with the page automatically refreshed every 10 minutes)

About weather observations | Map of Darwin area stations | Latest observations for Darwin area | Other Formats
Station Details ID: 014015 Name: DARWIN AIRPORT Lat: -12.42 Lon: 130.89 Height: 30.4 m
Data from the previous 72 hours. | See also: Recent months at Darwin Airport
Date/Time
CST
Temp
°C
App
Temp
°C
Dew
Point
°C
Rel
Hum
%
Delta-T
°C
Wind Press
QNH
hPa
Press
MSL
hPa
Rain since
9am
mm
Dir  Spd
km/h
Gust
km/h
Spd
kts
Gust
kts
17/09:00pm 30.4 33.6 23.1 65 5.0 NW 11 15 6 8 1007.3 1007.0 0.0
17/08:30pm 30.7 32.7 22.2 60 5.8 NW 15 19 8 10 1006.9 1006.6 0.0
17/08:00pm 31.0 32.7 21.0 55 6.7 NW 13 20 7 11 1006.9 1006.6 0.0
17/07:30pm 31.3 34.0 21.4 55 6.7 NW 9 11 5 6 1006.5 1006.2 0.0
17/07:00pm 31.5 34.4 20.7 52 7.2 NW 6 9 3 5 1005.9 1005.6 0.0
17/06:30pm 32.1 34.5 20.9 51 7.5 WNW 9 11 5 6 1005.4 1005.1 0.0
17/06:00pm 32.6 34.3 20.1 47 8.3 WNW 11 15 6 8 1005.2 1004.9 0.0
17/05:30pm 33.0 34.2 19.9 46 8.7 WNW 13 17 7 9 1005.1 1004.8 0.0
17/05:00pm 33.6 34.5 19.2 42 9.5 WNW 13 17 7 9 1005.3 1005.0 0.0
17/04:30pm 33.5 34.0 18.3 40 9.9 WNW 13 19 7 10 1005.4 1005.1 0.0
17/04:00pm 33.4 34.6 19.9 45 9.0 WNW 13 20 7 11 1005.5 1005.2 0.0
17/03:30pm 33.3 34.1 18.2 40 9.8 NW 11 19 6 10 1005.8 1005.5 0.0
17/03:00pm 33.7 34.6 18.4 40 10.0 NW 11 20 6 11 1006.0 1005.7 0.0
17/02:30pm 34.3 34.3 17.2 36 11.0 NNW 13 20 7 11 1006.4 1006.1 0.0
17/02:00pm 33.8 35.2 18.7 40 9.9 NNW 9 17 5 9 1006.7 1006.4 0.0
17/01:30pm 33.6 35.6 19.9 44 9.1 N 9 17 5 9 1007.3 1007.0 0.0
17/01:00pm 32.9 34.6 21.7 51 7.6 N 15 22 8 12 1007.6 1007.3 0.0
17/12:30pm 32.5 34.2 22.4 55 6.9 NNW 17 22 9 12 1007.8 1007.5 0.0
17/12:00pm 32.2 35.2 21.9 54 7.0 N 9 17 5 9 1008.1 1007.8 0.0
17/11:30am 31.4 35.0 22.0 57 6.4 N 6 13 3 7 1008.6 1008.3 0.0
17/11:00am 30.3 33.3 21.2 58 6.1 ESE 7 15 4 8 1009.1 1008.8 0.0
17/10:30am 29.3 30.6 20.9 60 5.6 SE 15 22 8 12 1009.8 1009.5 0.0
17/10:00am 27.7 27.8 20.4 64 4.8 SSE 20 30 11 16 1010.4 1010.1 0.0
17/09:30am 27.1 26.4 20.2 66 4.5 SSE 24 35 13 19 1010.8 1010.5 0.0
17/09:00am 26.6 24.6 20.7 70 3.9 SSE 32 48 17 26 1010.8 1010.5 0.0
17/08:44am 26.8 29.5 21.4 72 3.6 SE 9 50 5 27 1010.7 1010.4 0.0
17/08:30am 30.3 35.2 24.4 70 4.1 ESE 6 9 3 5 1010.4 1010.1 0.0
17/08:00am 29.6 35.4 25.1 77 3.2 NE 4 6 2 3 1010.3 1010.0 0.0
17/07:30am 29.4 35.5 25.0 77 3.1 NNW 2 4 1 2 1010.2 1009.9 0.0
17/07:00am 27.6 33.7 25.0 86 1.8 N 2 4 1 2 1009.5 1009.2 0.0
17/06:30am 27.1 32.2 24.7 87 1.7 NNW 6 11 3 6 1009.0 1008.7 0.0
17/06:00am 26.9 33.0 25.0 89 1.3 NNE 2 4 1 2 1008.6 1008.3 0.0
17/05:30am 27.1 32.8 25.0 88 1.5 NNW 4 4 2 2 1008.5 1008.2 0.0
17/05:00am 27.5 32.6 24.6 84 2.0 NNW 6 9 3 5 1008.0 1007.7 0.0
17/04:30am 28.4 32.8 24.4 79 2.8 NNW 9 13 5 7 1007.3 1007.0 0.0
17/04:00am 28.4 32.4 24.4 79 2.8 NNW 11 13 6 7 1007.1 1006.8 0.0
17/03:30am 28.6 32.5 24.3 77 3.0 NW 11 15 6 8 1007.1 1006.8 0.0
17/03:00am 29.0 32.3 23.8 73 3.6 NW 13 17 7 9 1007.2 1006.9 0.0
17/02:30am 28.9 32.7 24.0 75 3.4 NNW 11 17 6 9 1007.4 1007.1 0.0
17/02:00am 29.0 32.8 24.1 75 3.4 NNW 11 17 6 9 1007.7 1007.4 0.0
17/01:30am 29.2 32.9 23.9 73 3.7 NNW 11 13 6 7 1008.1 1007.8 0.0
17/01:00am 29.0 32.4 24.1 75 3.4 NNW 13 17 7 9 1008.3 1008.0 0.0
17/12:30am 29.2 33.0 24.0 73 3.6 NNW 11 15 6 8 1008.8 1008.5 0.0
17/12:00am 29.2 33.1 24.2 74 3.5 NNW 11 15 6 8 1009.2 1008.9 0.0
 
Date/Time
CST
Temp
°C
App
Temp
°C
Dew
Point
°C
Rel
Hum
%
Delta-T
°C
Wind Press
QNH
hPa
Press
MSL
hPa
Rain since
9am
mm
Dir  Spd
km/h
Gust
km/h
Spd
kts
Gust
kts
16/11:30pm 29.4 32.7 23.8 72 3.9 NNW 13 15 7 8 1009.4 1009.1 0.0
16/11:00pm 29.4 32.5 23.5 70 4.1 NNW 13 19 7 10 1009.2 1008.9 0.0
16/10:30pm 29.3 32.6 23.8 72 3.8 NNW 13 17 7 9 1008.9 1008.6 0.0
16/10:00pm 29.5 33.4 23.6 70 4.1 NNW 9 13 5 7 1008.5 1008.2 0.0
16/09:30pm 28.8 33.0 24.8 79 2.8 NNW 11 15 6 8 1008.2 1007.9 0.0
16/09:00pm 28.8 33.5 25.0 80 2.7 NNW 9 13 5 7 1007.7 1007.4 0.0
16/08:30pm 28.8 32.9 24.0 75 3.3 NNW 9 13 5 7 1007.3 1007.0 0.0
16/08:00pm 28.7 33.2 23.9 75 3.3 NNW 7 11 4 6 1006.9 1006.6 0.0
16/07:30pm 29.0 33.5 23.6 72 3.7 WNW 6 7 3 4 1006.9 1006.6 0.0
16/07:00pm 28.8 33.4 23.1 71 3.9 NW 4 6 2 3 1006.5 1006.2 0.0
16/06:30pm 28.8 32.9 23.9 75 3.4 W 9 11 5 6 1006.6 1006.3 0.0
16/06:00pm 28.5 32.2 23.3 73 3.6 SSW 9 13 5 7 1006.6 1006.3 0.0
16/05:30pm 28.1 29.9 21.9 69 4.2 S 15 20 8 11 1006.6 1006.3 0.0
16/05:00pm 29.5 31.9 22.3 65 4.9 SW 13 30 7 16 1006.4 1006.1 0.0
16/04:30pm 28.3 30.3 22.2 69 4.1 ENE 15 28 8 15 1006.3 1006.0 0.0
16/04:14pm 27.9 29.6 22.3 71 3.8 ENE 17 41 9 22 1006.4 1006.1 0.0
16/04:00pm 33.0 36.0 24.0 59 6.3 WNW 15 20 8 11 1005.9 1005.6 0.0
16/03:30pm 33.3 34.8 22.7 53 7.3 WNW 19 22 10 12 1005.8 1005.5 0.0
16/03:00pm 33.6 35.7 22.4 52 7.7 WNW 15 24 8 13 1006.0 1005.7 0.0
16/02:30pm 33.9 36.6 22.9 52 7.6 WNW 13 20 7 11 1006.5 1006.2 0.0
16/02:00pm 33.5 36.2 22.9 53 7.3 NW 13 24 7 13 1007.1 1006.8 0.0
16/01:30pm 32.8 34.8 22.3 54 7.2 NW 15 19 8 10 1007.5 1007.2 0.0
16/01:00pm 32.4 35.5 23.5 59 6.2 NW 13 20 7 11 1007.9 1007.6 0.0
16/12:30pm 32.8 37.1 24.3 61 6.0 NW 9 15 5 8 1008.1 1007.8 0.0
16/12:00pm 33.3 37.6 24.3 59 6.3 NNW 9 15 5 8 1008.6 1008.3 0.0
16/11:30am 31.9 36.3 23.4 60 5.9 NW 6 13 3 7 1009.2 1008.9 0.0
16/11:00am 32.5 37.0 22.9 57 6.6 S 4 11 2 6 1009.8 1009.5 0.0
16/10:30am 32.1 37.1 23.8 61 5.8 S 4 9 2 5 1010.2 1009.9 0.0
16/10:00am 31.4 36.5 24.1 65 5.1 S 4 7 2 4 1010.5 1010.2 0.0
16/09:30am 30.4 34.5 23.0 64 5.1 SE 6 9 3 5 1010.8 1010.5 0.0
16/09:00am 29.6 33.6 22.7 66 4.7 S 6 9 3 5 1010.9 1010.6 33.6
16/08:30am 28.4 32.1 23.3 74 3.5 SSE 9 13 5 7 1010.9 1010.6 33.6
16/08:00am 27.7 32.2 23.9 80 2.6 SSE 7 9 4 5 1010.7 1010.4 33.6
16/07:30am 27.3 31.6 23.7 81 2.5 SSE 7 11 4 6 1010.3 1010.0 33.6
16/07:00am 26.9 31.1 23.5 81 2.3 SE 7 9 4 5 1010.0 1009.7 33.6
16/06:30am 26.5 30.8 23.7 84 1.9 SSE 7 9 4 5 1009.5 1009.2 33.6
16/06:00am 26.5 30.3 23.4 83 2.1 SE 9 11 5 6 1009.3 1009.0 33.6
16/05:30am 26.4 30.4 23.8 85 1.8 SE 9 13 5 7 1008.8 1008.5 33.6
16/05:00am 26.7 31.0 24.2 86 1.7 SE 9 11 5 6 1008.3 1008.0 33.6
16/04:30am 26.5 31.5 24.8 90 1.2 E 7 9 4 5 1007.9 1007.6 33.6
16/04:00am 26.8 31.8 24.8 89 1.4 ESE 7 11 4 6 1007.5 1007.2 33.6
16/03:30am 27.0 31.7 25.0 89 1.4 SE 9 11 5 6 1007.3 1007.0 33.6
16/03:00am 27.2 32.2 25.4 90 1.3 SE 9 13 5 7 1007.3 1007.0 33.6
16/02:30am 27.5 32.0 25.2 87 1.6 SE 11 13 6 7 1007.5 1007.2 33.6
16/02:00am 27.2 34.0 25.5 90 1.2 CALM 0 0 0 0 1007.5 1007.2 33.6
16/01:30am 27.4 32.8 25.1 87 1.6 N 6 6 3 3 1007.7 1007.4 33.6
16/01:00am 27.7 33.2 25.3 87 1.7 N 6 9 3 5 1007.9 1007.6 33.6
16/12:30am 27.5 33.4 25.4 88 1.5 NNE 4 4 2 2 1008.0 1007.7 33.6
16/12:00am 27.9 33.8 25.3 86 1.8 N 4 6 2 3 1007.9 1007.6 33.6
 
Date/Time
CST
Temp
°C
App
Temp
°C
Dew
Point
°C
Rel
Hum
%
Delta-T
°C
Wind Press
QNH
hPa
Press
MSL
hPa
Rain since
9am
mm
Dir  Spd
km/h
Gust
km/h
Spd
kts
Gust
kts
15/11:30pm 27.4 33.0 25.4 89 1.4 N 6 7 3 4 1007.7 1007.4 33.6
15/11:00pm 27.8 33.4 25.5 87 1.6 N 6 7 3 4 1007.6 1007.3 33.6
15/10:30pm 27.9 33.9 25.5 87 1.7 N 4 6 2 3 1007.6 1007.3 33.6
15/10:00pm 28.5 34.1 25.4 83 2.2 N 6 7 3 4 1007.5 1007.2 33.6
15/09:30pm 29.3 33.4 24.6 76 3.3 NNW 11 15 6 8 1007.3 1007.0 33.6
15/09:00pm 29.4 33.7 24.2 73 3.6 NNW 9 11 5 6 1007.0 1006.7 33.6
15/08:30pm 29.6 33.9 23.7 70 4.1 NW 7 9 4 5 1006.6 1006.3 33.6
15/08:00pm 29.9 34.5 24.2 71 4.0 NW 7 9 4 5 1006.6 1006.3 33.6
15/07:30pm 30.2 33.8 23.7 68 4.5 WNW 11 13 6 7 1006.2 1005.9 33.6
15/07:00pm 30.6 33.6 23.4 65 5.0 WNW 13 17 7 9 1005.9 1005.6 33.6
15/06:30pm 31.0 33.8 23.7 65 5.1 WNW 15 19 8 10 1005.7 1005.4 33.6
15/06:00pm 31.4 33.4 23.0 61 5.8 NW 17 19 9 10 1005.6 1005.3 33.6
15/05:30pm 31.7 34.3 22.7 59 6.2 WNW 13 17 7 9 1005.4 1005.1 33.6
15/05:00pm 32.4 35.1 22.2 55 7.0 WNW 11 13 6 7 1005.2 1004.9 33.6
15/04:30pm 32.8 35.3 21.1 50 7.9 WNW 9 13 5 7 1005.3 1005.0 33.6
15/04:00pm 32.9 36.1 19.8 46 8.7 S 2 6 1 3 1005.3 1005.0 33.6
15/03:30pm 32.6 34.6 20.7 49 8.0 W 11 15 6 8 1005.3 1005.0 33.6
15/03:00pm 32.7 35.4 21.3 51 7.7 WNW 9 15 5 8 1005.5 1005.2 33.6
15/02:30pm 32.1 34.9 21.5 53 7.2 W 9 15 5 8 1005.9 1005.6 33.6
15/02:00pm 31.6 35.5 22.6 59 6.2 WNW 6 13 3 7 1006.3 1006.0 33.6
15/01:30pm 30.4 35.6 22.8 64 5.2 CALM 0 2 0 1 1006.7 1006.4 33.6
15/01:00pm 29.7 34.0 23.3 68 4.4 NE 6 9 3 5 1006.8 1006.5 33.6
15/12:30pm 29.3 33.8 23.7 72 3.9 WNW 6 9 3 5 1007.4 1007.1 33.6
15/12:00pm 29.0 33.2 23.5 72 3.8 W 7 13 4 7 1008.0 1007.7 33.4
15/11:30am 28.3 32.6 23.7 76 3.2 WSW 7 11 4 6 1008.3 1008.0 33.4
15/11:00am 28.6 33.0 23.4 73 3.6 S 6 9 3 5 1009.2 1008.9 33.4
15/10:30am 26.5 31.2 24.0 86 1.7 SSE 6 7 3 4 1009.1 1008.8 33.4
15/10:00am 24.8 27.2 22.9 89 1.3 ENE 15 24 8 13 1009.8 1009.5 33.4
15/09:46am 24.1 25.3 22.5 91 1.1 NNE 20 43 11 23 1010.0 1009.7 32.2
15/09:39am 23.6 25.5 22.1 91 1.0 ENE 15 39 8 21 1010.0 1009.7 29.0
15/09:36am 23.9 25.2 22.4 91 1.0 ESE 19 39 10 21 1010.5 1010.2 23.2
15/09:30am 24.6 24.8 22.7 89 1.3 SSE 26 37 14 20 1010.3 1010.0 10.8
15/09:23am 25.8 26.6 23.8 89 1.4 SSE 26 37 14 20 1010.3 1010.0 1.2
15/09:20am 26.2 27.7 24.3 89 1.3 SSE 24 35 13 19 1010.2 1009.9 0.6
15/09:00am 26.2 29.1 23.1 83 2.1 SW 13 19 7 10 1009.6 1009.3 0.4
15/08:30am 27.5 30.3 20.5 65 4.6 WSW 6 9 3 5 1009.8 1009.5 0.0
15/08:16am 27.7 30.3 21.2 67 4.3 WNW 9 24 5 13 1009.6 1009.3 0.0
15/08:00am 29.5 34.4 25.2 77 3.0 N 9 22 5 12 1009.2 1008.9 0.0
15/07:45am 29.2 34.8 25.5 80 2.6 E 6 7 3 4 1008.9 1008.6 0.0
15/07:30am 28.8 34.8 25.5 82 2.3 SE 4 6 2 3 1008.7 1008.4 0.0
15/07:00am 28.5 34.3 25.8 85 1.9 WSW 6 7 3 4 1008.5 1008.2 0.0
15/06:30am 27.7 33.2 25.6 88 1.5 NNW 7 9 4 5 1007.7 1007.4 0.0
15/06:00am 28.4 33.9 25.6 85 2.0 W 7 9 4 5 1008.0 1007.7 0.0
15/05:30am 29.1 33.9 25.1 79 2.8 WNW 9 11 5 6 1007.6 1007.3 0.0
15/05:00am 27.9 32.8 25.3 86 1.8 NW 9 11 5 6 1007.3 1007.0 0.0
15/04:30am 28.5 33.1 24.8 80 2.6 WNW 9 9 5 5 1007.1 1006.8 0.0
15/04:00am 28.6 33.0 25.0 81 2.5 NW 11 15 6 8 1006.7 1006.4 0.0
15/03:30am 28.3 32.6 24.9 82 2.4 NNW 11 15 6 8 1006.2 1005.9 0.0
15/03:00am 28.0 32.4 25.0 84 2.1 NW 11 15 6 8 1006.2 1005.9 0.0
15/02:30am 26.8 31.8 24.8 89 1.4 NW 7 9 4 5 1006.6 1006.3 0.0
15/02:00am 26.8 31.5 24.9 89 1.3 NW 9 13 5 7 1007.1 1006.8 0.0
15/01:30am 26.7 31.6 24.7 89 1.4 WNW 7 9 4 5 1007.6 1007.3 0.0
15/01:00am 26.8 31.8 24.5 87 1.6 WNW 6 7 3 4 1007.8 1007.5 0.0
15/12:30am 26.9 32.0 24.6 87 1.6 WNW 6 6 3 3 1008.0 1007.7 0.0
15/12:00am 27.1 32.1 24.5 86 1.8 WNW 6 6 3 3 1008.1 1007.8 0.0
 
Date/Time
CST
Temp
°C
App
Temp
°C
Dew
Point
°C
Rel
Hum
%
Delta-T
°C
Wind Press
QNH
hPa
Press
MSL
hPa
Rain since
9am
mm
Dir  Spd
km/h
Gust
km/h
Spd
kts
Gust
kts
14/11:30pm 27.5 32.7 24.8 85 1.9 W 6 7 3 4 1008.0 1007.7 0.0
14/11:00pm 27.5 32.8 24.9 86 1.8 WNW 6 7 3 4 1007.6 1007.3 0.0
14/10:30pm 28.0 33.1 24.7 82 2.3 WNW 6 6 3 3 1007.7 1007.4 0.0
14/10:00pm 29.0 33.6 24.1 75 3.4 W 7 9 4 5 1007.4 1007.1 0.0

Latest Capital City Observations: Canberra | Sydney | Melbourne | Brisbane | Adelaide | Perth | Hobart | Darwin

Other Formats:

Comma delimited format used in spreadsheet applications
http://www.bom.gov.au/fwo/IDD60901/IDD60901.94120.axf

JavaScript Object Notation format (JSON) in row-major order
http://www.bom.gov.au/fwo/IDD60901/IDD60901.94120.json